sensor_id;sensor_type;location;lat;lon;timestamp;P1;durP1;ratioP1;P2;durP2;ratioP2
21010;SDS011;10663;42.714;23.274;2022-11-25T00:00:34;6.23;;;4.30;;
21010;SDS011;10663;42.714;23.274;2022-11-25T00:02:05;6.27;;;4.53;;
21010;SDS011;10663;42.714;23.274;2022-11-25T00:03:36;5.43;;;4.27;;
21010;SDS011;10663;42.714;23.274;2022-11-25T00:05:08;7.45;;;4.60;;
21010;SDS011;10663;42.714;23.274;2022-11-25T00:06:39;5.65;;;4.60;;
21010;SDS011;10663;42.714;23.274;2022-11-25T00:08:09;4.90;;;4.03;;
21010;SDS011;10663;42.714;23.274;2022-11-25T00:09:40;6.05;;;4.50;;
21010;SDS011;10663;42.714;23.274;2022-11-25T00:11:12;6.13;;;4.32;;
21010;SDS011;10663;42.714;23.274;2022-11-25T00:12:43;5.32;;;4.30;;
21010;SDS011;10663;42.714;23.274;2022-11-25T00:14:14;5.67;;;4.53;;
21010;SDS011;10663;42.714;23.274;2022-11-25T00:15:45;4.75;;;4.10;;
21010;SDS011;10663;42.714;23.274;2022-11-25T00:17:16;5.75;;;4.07;;
21010;SDS011;10663;42.714;23.274;2022-11-25T00:18:48;4.73;;;4.10;;
21010;SDS011;10663;42.714;23.274;2022-11-25T00:20:20;4.75;;;4.25;;
21010;SDS011;10663;42.714;23.274;2022-11-25T00:21:51;5.80;;;4.10;;
21010;SDS011;10663;42.714;23.274;2022-11-25T00:23:22;6.43;;;4.63;;
21010;SDS011;10663;42.714;23.274;2022-11-25T00:24:53;6.73;;;4.43;;
21010;SDS011;10663;42.714;23.274;2022-11-25T00:26:24;5.13;;;4.60;;
21010;SDS011;10663;42.714;23.274;2022-11-25T00:27:56;7.28;;;4.53;;
21010;SDS011;10663;42.714;23.274;2022-11-25T00:29:28;4.82;;;4.10;;
21010;SDS011;10663;42.714;23.274;2022-11-25T00:31:08;6.40;;;4.43;;
21010;SDS011;10663;42.714;23.274;2022-11-25T00:32:43;6.57;;;4.57;;
21010;SDS011;10663;42.714;23.274;2022-11-25T00:34:14;5.20;;;4.22;;
21010;SDS011;10663;42.714;23.274;2022-11-25T00:35:44;5.63;;;4.63;;
21010;SDS011;10663;42.714;23.274;2022-11-25T00:37:15;7.43;;;4.50;;
21010;SDS011;10663;42.714;23.274;2022-11-25T00:38:52;5.43;;;4.55;;
21010;SDS011;10663;42.714;23.274;2022-11-25T00:40:25;6.60;;;4.60;;
21010;SDS011;10663;42.714;23.274;2022-11-25T00:41:56;5.75;;;4.55;;
21010;SDS011;10663;42.714;23.274;2022-11-25T00:43:47;6.72;;;4.80;;
21010;SDS011;10663;42.714;23.274;2022-11-25T00:45:37;5.88;;;4.82;;
21010;SDS011;10663;42.714;23.274;2022-11-25T00:47:10;5.63;;;4.95;;
21010;SDS011;10663;42.714;23.274;2022-11-25T00:48:45;6.20;;;4.82;;
21010;SDS011;10663;42.714;23.274;2022-11-25T00:50:22;6.10;;;4.90;;
21010;SDS011;10663;42.714;23.274;2022-11-25T00:51:53;5.80;;;4.83;;
21010;SDS011;10663;42.714;23.274;2022-11-25T00:53:24;6.25;;;5.10;;
21010;SDS011;10663;42.714;23.274;2022-11-25T00:55:02;6.43;;;5.28;;
21010;SDS011;10663;42.714;23.274;2022-11-25T00:56:34;6.40;;;4.80;;
21010;SDS011;10663;42.714;23.274;2022-11-25T00:58:05;5.53;;;4.75;;
21010;SDS011;10663;42.714;23.274;2022-11-25T00:59:36;5.47;;;4.47;;
21010;SDS011;10663;42.714;23.274;2022-11-25T01:01:07;6.68;;;4.72;;
21010;SDS011;10663;42.714;23.274;2022-11-25T01:02:38;6.13;;;4.90;;
21010;SDS011;10663;42.714;23.274;2022-11-25T01:04:09;5.53;;;4.68;;
21010;SDS011;10663;42.714;23.274;2022-11-25T01:05:40;5.10;;;4.60;;
21010;SDS011;10663;42.714;23.274;2022-11-25T01:07:10;5.78;;;4.40;;
21010;SDS011;10663;42.714;23.274;2022-11-25T01:08:41;5.57;;;4.95;;
21010;SDS011;10663;42.714;23.274;2022-11-25T01:10:12;6.50;;;4.40;;
21010;SDS011;10663;42.714;23.274;2022-11-25T01:11:43;5.80;;;4.60;;
21010;SDS011;10663;42.714;23.274;2022-11-25T01:13:14;5.97;;;4.65;;
21010;SDS011;10663;42.714;23.274;2022-11-25T01:14:45;6.40;;;4.70;;
21010;SDS011;10663;42.714;23.274;2022-11-25T01:16:18;6.80;;;4.57;;
21010;SDS011;10663;42.714;23.274;2022-11-25T01:17:50;6.53;;;4.60;;
21010;SDS011;10663;42.714;23.274;2022-11-25T01:19:21;6.05;;;4.60;;
21010;SDS011;10663;42.714;23.274;2022-11-25T01:20:52;5.13;;;4.63;;
21010;SDS011;10663;42.714;23.274;2022-11-25T01:22:23;6.03;;;4.40;;
21010;SDS011;10663;42.714;23.274;2022-11-25T01:23:54;5.33;;;4.60;;
21010;SDS011;10663;42.714;23.274;2022-11-25T01:25:25;5.45;;;4.30;;
21010;SDS011;10663;42.714;23.274;2022-11-25T01:26:55;5.10;;;4.20;;
21010;SDS011;10663;42.714;23.274;2022-11-25T01:28:26;5.18;;;4.20;;
21010;SDS011;10663;42.714;23.274;2022-11-25T01:29:57;5.10;;;4.30;;
21010;SDS011;10663;42.714;23.274;2022-11-25T01:31:29;4.57;;;4.07;;
21010;SDS011;10663;42.714;23.274;2022-11-25T01:33:02;5.93;;;4.60;;
21010;SDS011;10663;42.714;23.274;2022-11-25T01:34:33;7.28;;;4.43;;
21010;SDS011;10663;42.714;23.274;2022-11-25T01:36:05;4.87;;;4.37;;
21010;SDS011;10663;42.714;23.274;2022-11-25T01:37:37;5.35;;;4.22;;
21010;SDS011;10663;42.714;23.274;2022-11-25T01:39:10;4.97;;;4.47;;
21010;SDS011;10663;42.714;23.274;2022-11-25T01:40:45;4.35;;;3.95;;
21010;SDS011;10663;42.714;23.274;2022-11-25T01:42:16;4.80;;;4.30;;
21010;SDS011;10663;42.714;23.274;2022-11-25T01:45:36;6.75;;;4.25;;
21010;SDS011;10663;42.714;23.274;2022-11-25T01:48:56;4.47;;;3.63;;
21010;SDS011;10663;42.714;23.274;2022-11-25T01:50:30;4.82;;;3.95;;
21010;SDS011;10663;42.714;23.274;2022-11-25T01:53:58;4.85;;;3.53;;
21010;SDS011;10663;42.714;23.274;2022-11-25T01:55:31;4.22;;;3.75;;
21010;SDS011;10663;42.714;23.274;2022-11-25T01:57:08;4.78;;;3.70;;
21010;SDS011;10663;42.714;23.274;2022-11-25T01:58:54;4.05;;;3.30;;
21010;SDS011;10663;42.714;23.274;2022-11-25T02:00:25;3.90;;;3.60;;
21010;SDS011;10663;42.714;23.274;2022-11-25T02:01:56;3.73;;;3.27;;
21010;SDS011;10663;42.714;23.274;2022-11-25T02:03:32;4.10;;;3.67;;
21010;SDS011;10663;42.714;23.274;2022-11-25T02:05:07;3.97;;;3.58;;
21010;SDS011;10663;42.714;23.274;2022-11-25T02:06:47;3.88;;;3.22;;
21010;SDS011;10663;42.714;23.274;2022-11-25T02:08:24;3.85;;;3.25;;
21010;SDS011;10663;42.714;23.274;2022-11-25T02:09:56;3.47;;;3.10;;
21010;SDS011;10663;42.714;23.274;2022-11-25T02:11:28;3.80;;;3.22;;
21010;SDS011;10663;42.714;23.274;2022-11-25T02:13:01;4.10;;;3.30;;
21010;SDS011;10663;42.714;23.274;2022-11-25T02:14:32;4.43;;;3.47;;
21010;SDS011;10663;42.714;23.274;2022-11-25T02:16:04;3.37;;;3.00;;
21010;SDS011;10663;42.714;23.274;2022-11-25T02:17:34;5.23;;;3.20;;
21010;SDS011;10663;42.714;23.274;2022-11-25T02:19:07;4.82;;;3.35;;
21010;SDS011;10663;42.714;23.274;2022-11-25T02:20:48;4.25;;;3.15;;
21010;SDS011;10663;42.714;23.274;2022-11-25T02:22:24;4.57;;;3.53;;
21010;SDS011;10663;42.714;23.274;2022-11-25T02:26:11;3.72;;;3.30;;
21010;SDS011;10663;42.714;23.274;2022-11-25T02:27:43;3.72;;;3.05;;
21010;SDS011;10663;42.714;23.274;2022-11-25T02:29:19;4.00;;;3.30;;
21010;SDS011;10663;42.714;23.274;2022-11-25T02:30:51;4.05;;;3.30;;
21010;SDS011;10663;42.714;23.274;2022-11-25T02:32:22;4.93;;;3.28;;
21010;SDS011;10663;42.714;23.274;2022-11-25T02:33:53;4.65;;;3.33;;
21010;SDS011;10663;42.714;23.274;2022-11-25T02:36:58;3.40;;;3.10;;
21010;SDS011;10663;42.714;23.274;2022-11-25T02:40:07;3.80;;;3.40;;
21010;SDS011;10663;42.714;23.274;2022-11-25T02:41:49;3.45;;;3.00;;
21010;SDS011;10663;42.714;23.274;2022-11-25T02:43:26;3.70;;;3.40;;
21010;SDS011;10663;42.714;23.274;2022-11-25T02:44:57;3.90;;;3.10;;
21010;SDS011;10663;42.714;23.274;2022-11-25T02:46:28;3.90;;;3.08;;
21010;SDS011;10663;42.714;23.274;2022-11-25T02:48:00;5.28;;;3.58;;
21010;SDS011;10663;42.714;23.274;2022-11-25T02:49:31;4.13;;;3.30;;
21010;SDS011;10663;42.714;23.274;2022-11-25T02:51:02;5.07;;;3.60;;
21010;SDS011;10663;42.714;23.274;2022-11-25T02:52:35;3.90;;;3.50;;
21010;SDS011;10663;42.714;23.274;2022-11-25T02:54:05;3.63;;;3.30;;
21010;SDS011;10663;42.714;23.274;2022-11-25T02:55:37;3.97;;;3.38;;
21010;SDS011;10663;42.714;23.274;2022-11-25T02:57:08;5.88;;;3.60;;
21010;SDS011;10663;42.714;23.274;2022-11-25T02:58:39;3.93;;;3.10;;
21010;SDS011;10663;42.714;23.274;2022-11-25T03:00:12;4.18;;;3.45;;
21010;SDS011;10663;42.714;23.274;2022-11-25T03:01:44;4.07;;;3.45;;
21010;SDS011;10663;42.714;23.274;2022-11-25T03:03:15;3.97;;;3.17;;
21010;SDS011;10663;42.714;23.274;2022-11-25T03:04:46;5.65;;;3.90;;
21010;SDS011;10663;42.714;23.274;2022-11-25T03:06:17;4.53;;;3.47;;
21010;SDS011;10663;42.714;23.274;2022-11-25T03:07:48;4.13;;;3.70;;
21010;SDS011;10663;42.714;23.274;2022-11-25T03:09:22;3.97;;;3.58;;
21010;SDS011;10663;42.714;23.274;2022-11-25T03:10:53;4.07;;;3.50;;
21010;SDS011;10663;42.714;23.274;2022-11-25T03:12:24;4.30;;;3.65;;
21010;SDS011;10663;42.714;23.274;2022-11-25T03:13:56;5.00;;;4.18;;
21010;SDS011;10663;42.714;23.274;2022-11-25T03:15:29;4.53;;;3.80;;
21010;SDS011;10663;42.714;23.274;2022-11-25T03:16:59;5.93;;;4.20;;
21010;SDS011;10663;42.714;23.274;2022-11-25T03:18:31;6.47;;;4.13;;
21010;SDS011;10663;42.714;23.274;2022-11-25T03:20:04;6.32;;;4.10;;
21010;SDS011;10663;42.714;23.274;2022-11-25T03:21:35;5.85;;;4.18;;
21010;SDS011;10663;42.714;23.274;2022-11-25T03:23:06;5.40;;;4.22;;
21010;SDS011;10663;42.714;23.274;2022-11-25T03:24:37;4.72;;;4.22;;
21010;SDS011;10663;42.714;23.274;2022-11-25T03:26:08;4.77;;;4.17;;
21010;SDS011;10663;42.714;23.274;2022-11-25T03:27:39;5.83;;;4.57;;
21010;SDS011;10663;42.714;23.274;2022-11-25T03:29:11;5.88;;;4.40;;
21010;SDS011;10663;42.714;23.274;2022-11-25T03:30:42;4.95;;;4.07;;
21010;SDS011;10663;42.714;23.274;2022-11-25T03:32:13;5.53;;;4.80;;
21010;SDS011;10663;42.714;23.274;2022-11-25T03:33:44;5.57;;;4.80;;
21010;SDS011;10663;42.714;23.274;2022-11-25T03:35:15;5.63;;;4.70;;
21010;SDS011;10663;42.714;23.274;2022-11-25T03:36:48;6.88;;;4.30;;
21010;SDS011;10663;42.714;23.274;2022-11-25T03:38:19;4.70;;;4.20;;
21010;SDS011;10663;42.714;23.274;2022-11-25T03:39:49;6.93;;;4.68;;
21010;SDS011;10663;42.714;23.274;2022-11-25T03:41:20;5.32;;;4.43;;
21010;SDS011;10663;42.714;23.274;2022-11-25T03:42:51;6.35;;;4.72;;
21010;SDS011;10663;42.714;23.274;2022-11-25T03:44:23;5.95;;;4.80;;
21010;SDS011;10663;42.714;23.274;2022-11-25T03:45:56;5.07;;;4.53;;
21010;SDS011;10663;42.714;23.274;2022-11-25T03:47:27;5.80;;;4.63;;
21010;SDS011;10663;42.714;23.274;2022-11-25T03:48:58;4.90;;;4.33;;
21010;SDS011;10663;42.714;23.274;2022-11-25T03:50:29;4.90;;;4.40;;
21010;SDS011;10663;42.714;23.274;2022-11-25T03:52:00;5.57;;;4.63;;
21010;SDS011;10663;42.714;23.274;2022-11-25T03:53:31;5.80;;;4.70;;
21010;SDS011;10663;42.714;23.274;2022-11-25T03:55:05;5.15;;;4.20;;
21010;SDS011;10663;42.714;23.274;2022-11-25T03:56:39;4.95;;;4.45;;
21010;SDS011;10663;42.714;23.274;2022-11-25T03:58:10;5.65;;;4.05;;
21010;SDS011;10663;42.714;23.274;2022-11-25T03:59:40;4.70;;;4.20;;
21010;SDS011;10663;42.714;23.274;2022-11-25T04:01:11;5.03;;;4.40;;
21010;SDS011;10663;42.714;23.274;2022-11-25T04:02:42;4.80;;;4.30;;
21010;SDS011;10663;42.714;23.274;2022-11-25T04:04:13;4.47;;;4.05;;
21010;SDS011;10663;42.714;23.274;2022-11-25T04:05:44;4.40;;;4.00;;
21010;SDS011;10663;42.714;23.274;2022-11-25T04:07:16;5.93;;;4.45;;
21010;SDS011;10663;42.714;23.274;2022-11-25T04:08:47;5.55;;;4.00;;
21010;SDS011;10663;42.714;23.274;2022-11-25T04:10:18;4.40;;;4.00;;
21010;SDS011;10663;42.714;23.274;2022-11-25T04:11:49;4.47;;;3.78;;
21010;SDS011;10663;42.714;23.274;2022-11-25T04:13:49;4.80;;;3.70;;
21010;SDS011;10663;42.714;23.274;2022-11-25T04:15:20;4.65;;;3.63;;
21010;SDS011;10663;42.714;23.274;2022-11-25T04:16:55;5.20;;;3.83;;
21010;SDS011;10663;42.714;23.274;2022-11-25T04:18:26;3.83;;;3.47;;
21010;SDS011;10663;42.714;23.274;2022-11-25T04:20:00;4.63;;;3.80;;
21010;SDS011;10663;42.714;23.274;2022-11-25T04:21:32;4.18;;;3.78;;
21010;SDS011;10663;42.714;23.274;2022-11-25T04:23:04;3.57;;;3.27;;
21010;SDS011;10663;42.714;23.274;2022-11-25T04:24:37;5.07;;;3.70;;
21010;SDS011;10663;42.714;23.274;2022-11-25T04:26:09;3.83;;;3.40;;
21010;SDS011;10663;42.714;23.274;2022-11-25T04:27:43;4.13;;;3.50;;
21010;SDS011;10663;42.714;23.274;2022-11-25T04:29:16;3.92;;;3.60;;
21010;SDS011;10663;42.714;23.274;2022-11-25T04:30:47;3.85;;;3.53;;
21010;SDS011;10663;42.714;23.274;2022-11-25T04:32:18;3.83;;;3.53;;
21010;SDS011;10663;42.714;23.274;2022-11-25T04:33:49;3.63;;;3.33;;
21010;SDS011;10663;42.714;23.274;2022-11-25T04:35:20;3.92;;;3.45;;
21010;SDS011;10663;42.714;23.274;2022-11-25T04:36:55;3.88;;;3.47;;
21010;SDS011;10663;42.714;23.274;2022-11-25T04:38:25;3.97;;;3.20;;
21010;SDS011;10663;42.714;23.274;2022-11-25T04:39:56;3.72;;;3.10;;
21010;SDS011;10663;42.714;23.274;2022-11-25T04:41:29;4.50;;;3.10;;
21010;SDS011;10663;42.714;23.274;2022-11-25T04:43:01;3.80;;;3.50;;
21010;SDS011;10663;42.714;23.274;2022-11-25T04:44:31;4.83;;;3.40;;
21010;SDS011;10663;42.714;23.274;2022-11-25T04:46:03;3.60;;;3.30;;
21010;SDS011;10663;42.714;23.274;2022-11-25T04:47:34;3.57;;;3.27;;
21010;SDS011;10663;42.714;23.274;2022-11-25T04:49:06;3.60;;;3.30;;
21010;SDS011;10663;42.714;23.274;2022-11-25T04:50:37;4.00;;;3.20;;
21010;SDS011;10663;42.714;23.274;2022-11-25T04:52:13;3.55;;;3.25;;
21010;SDS011;10663;42.714;23.274;2022-11-25T04:53:44;3.40;;;3.10;;
21010;SDS011;10663;42.714;23.274;2022-11-25T04:55:16;3.42;;;3.13;;
21010;SDS011;10663;42.714;23.274;2022-11-25T04:56:47;4.63;;;3.38;;
21010;SDS011;10663;42.714;23.274;2022-11-25T04:58:18;3.40;;;3.10;;
21010;SDS011;10663;42.714;23.274;2022-11-25T05:00:10;3.55;;;3.25;;
21010;SDS011;10663;42.714;23.274;2022-11-25T05:01:42;3.78;;;3.20;;
21010;SDS011;10663;42.714;23.274;2022-11-25T05:03:27;3.42;;;3.13;;
21010;SDS011;10663;42.714;23.274;2022-11-25T05:04:58;3.35;;;3.03;;
21010;SDS011;10663;42.714;23.274;2022-11-25T05:06:29;3.50;;;3.20;;
21010;SDS011;10663;42.714;23.274;2022-11-25T05:07:59;2.80;;;2.60;;
21010;SDS011;10663;42.714;23.274;2022-11-25T05:09:31;4.03;;;3.10;;
21010;SDS011;10663;42.714;23.274;2022-11-25T05:11:19;3.33;;;3.00;;
21010;SDS011;10663;42.714;23.274;2022-11-25T05:12:50;3.15;;;2.85;;
21010;SDS011;10663;42.714;23.274;2022-11-25T05:14:24;2.90;;;2.60;;
21010;SDS011;10663;42.714;23.274;2022-11-25T05:15:57;3.40;;;2.50;;
21010;SDS011;10663;42.714;23.274;2022-11-25T05:17:29;3.90;;;3.20;;
21010;SDS011;10663;42.714;23.274;2022-11-25T05:19:02;3.40;;;3.10;;
21010;SDS011;10663;42.714;23.274;2022-11-25T05:20:33;3.65;;;3.17;;
21010;SDS011;10663;42.714;23.274;2022-11-25T05:22:04;2.80;;;2.60;;
21010;SDS011;10663;42.714;23.274;2022-11-25T05:23:36;3.78;;;2.95;;
21010;SDS011;10663;42.714;23.274;2022-11-25T05:25:10;3.90;;;3.00;;
21010;SDS011;10663;42.714;23.274;2022-11-25T05:26:48;3.40;;;2.65;;
21010;SDS011;10663;42.714;23.274;2022-11-25T05:28:19;2.50;;;2.30;;
21010;SDS011;10663;42.714;23.274;2022-11-25T05:29:50;2.83;;;2.58;;
21010;SDS011;10663;42.714;23.274;2022-11-25T05:31:20;3.08;;;2.78;;
21010;SDS011;10663;42.714;23.274;2022-11-25T05:32:52;3.97;;;2.97;;
21010;SDS011;10663;42.714;23.274;2022-11-25T05:34:24;2.88;;;2.65;;
21010;SDS011;10663;42.714;23.274;2022-11-25T05:35:56;3.20;;;2.88;;
21010;SDS011;10663;42.714;23.274;2022-11-25T05:37:33;3.55;;;3.00;;
21010;SDS011;10663;42.714;23.274;2022-11-25T05:39:08;3.58;;;3.00;;
21010;SDS011;10663;42.714;23.274;2022-11-25T05:41:01;4.13;;;3.10;;
21010;SDS011;10663;42.714;23.274;2022-11-25T05:42:34;4.05;;;2.88;;
21010;SDS011;10663;42.714;23.274;2022-11-25T05:44:08;4.30;;;3.20;;
21010;SDS011;10663;42.714;23.274;2022-11-25T05:45:38;4.07;;;3.00;;
21010;SDS011;10663;42.714;23.274;2022-11-25T05:47:11;7.05;;;3.20;;
21010;SDS011;10663;42.714;23.274;2022-11-25T05:48:43;4.85;;;3.28;;
21010;SDS011;10663;42.714;23.274;2022-11-25T05:50:14;5.37;;;3.60;;
21010;SDS011;10663;42.714;23.274;2022-11-25T05:51:45;4.33;;;3.20;;
21010;SDS011;10663;42.714;23.274;2022-11-25T05:53:16;5.70;;;3.25;;
21010;SDS011;10663;42.714;23.274;2022-11-25T05:54:48;4.65;;;3.50;;
21010;SDS011;10663;42.714;23.274;2022-11-25T05:56:20;3.20;;;2.90;;
21010;SDS011;10663;42.714;23.274;2022-11-25T05:58:11;3.33;;;2.60;;
21010;SDS011;10663;42.714;23.274;2022-11-25T05:59:44;4.45;;;2.65;;
21010;SDS011;10663;42.714;23.274;2022-11-25T06:01:22;2.90;;;2.70;;
21010;SDS011;10663;42.714;23.274;2022-11-25T06:02:53;2.92;;;2.60;;
21010;SDS011;10663;42.714;23.274;2022-11-25T06:04:25;4.55;;;2.83;;
21010;SDS011;10663;42.714;23.274;2022-11-25T06:05:57;3.22;;;2.90;;
21010;SDS011;10663;42.714;23.274;2022-11-25T06:07:29;3.83;;;2.80;;
21010;SDS011;10663;42.714;23.274;2022-11-25T06:08:59;3.30;;;2.88;;
21010;SDS011;10663;42.714;23.274;2022-11-25T06:10:32;3.13;;;2.83;;
21010;SDS011;10663;42.714;23.274;2022-11-25T06:12:03;3.15;;;2.70;;
21010;SDS011;10663;42.714;23.274;2022-11-25T06:13:35;3.20;;;2.90;;
21010;SDS011;10663;42.714;23.274;2022-11-25T06:15:06;5.82;;;2.97;;
21010;SDS011;10663;42.714;23.274;2022-11-25T06:16:39;4.97;;;3.20;;
21010;SDS011;10663;42.714;23.274;2022-11-25T06:18:24;4.20;;;3.50;;
21010;SDS011;10663;42.714;23.274;2022-11-25T06:19:55;6.03;;;4.20;;
21010;SDS011;10663;42.714;23.274;2022-11-25T06:21:27;4.45;;;3.40;;
21010;SDS011;10663;42.714;23.274;2022-11-25T06:22:58;5.57;;;3.70;;
21010;SDS011;10663;42.714;23.274;2022-11-25T06:24:34;4.82;;;3.95;;
21010;SDS011;10663;42.714;23.274;2022-11-25T06:27:47;4.30;;;3.67;;
21010;SDS011;10663;42.714;23.274;2022-11-25T06:29:18;4.10;;;3.53;;
21010;SDS011;10663;42.714;23.274;2022-11-25T06:30:52;4.90;;;3.63;;
21010;SDS011;10663;42.714;23.274;2022-11-25T06:32:33;5.55;;;3.80;;
21010;SDS011;10663;42.714;23.274;2022-11-25T06:34:19;4.88;;;3.47;;
21010;SDS011;10663;42.714;23.274;2022-11-25T06:35:50;4.18;;;3.45;;
21010;SDS011;10663;42.714;23.274;2022-11-25T06:37:21;5.40;;;3.17;;
21010;SDS011;10663;42.714;23.274;2022-11-25T06:38:52;5.28;;;3.47;;
21010;SDS011;10663;42.714;23.274;2022-11-25T06:40:23;4.35;;;3.50;;
21010;SDS011;10663;42.714;23.274;2022-11-25T06:41:55;4.47;;;3.60;;
21010;SDS011;10663;42.714;23.274;2022-11-25T06:43:25;4.88;;;3.88;;
21010;SDS011;10663;42.714;23.274;2022-11-25T06:44:56;4.13;;;3.58;;
21010;SDS011;10663;42.714;23.274;2022-11-25T06:46:27;3.72;;;3.42;;
21010;SDS011;10663;42.714;23.274;2022-11-25T06:47:58;4.30;;;3.53;;
21010;SDS011;10663;42.714;23.274;2022-11-25T06:49:29;4.05;;;3.75;;
21010;SDS011;10663;42.714;23.274;2022-11-25T06:51:01;4.83;;;3.93;;
21010;SDS011;10663;42.714;23.274;2022-11-25T06:52:33;4.97;;;3.97;;
21010;SDS011;10663;42.714;23.274;2022-11-25T06:54:04;4.93;;;3.63;;
21010;SDS011;10663;42.714;23.274;2022-11-25T06:55:36;5.50;;;4.35;;
21010;SDS011;10663;42.714;23.274;2022-11-25T06:57:07;4.00;;;3.60;;
21010;SDS011;10663;42.714;23.274;2022-11-25T06:58:39;4.55;;;3.92;;
21010;SDS011;10663;42.714;23.274;2022-11-25T07:00:11;4.85;;;4.07;;
21010;SDS011;10663;42.714;23.274;2022-11-25T07:01:42;5.85;;;3.97;;
21010;SDS011;10663;42.714;23.274;2022-11-25T07:03:13;4.68;;;4.07;;
21010;SDS011;10663;42.714;23.274;2022-11-25T07:04:44;5.35;;;4.53;;
21010;SDS011;10663;42.714;23.274;2022-11-25T07:06:15;4.53;;;3.75;;
21010;SDS011;10663;42.714;23.274;2022-11-25T07:07:48;5.68;;;4.20;;
21010;SDS011;10663;42.714;23.274;2022-11-25T07:09:19;5.57;;;3.92;;
21010;SDS011;10663;42.714;23.274;2022-11-25T07:10:51;4.40;;;4.00;;
21010;SDS011;10663;42.714;23.274;2022-11-25T07:12:22;4.88;;;3.80;;
21010;SDS011;10663;42.714;23.274;2022-11-25T07:13:55;6.05;;;4.07;;
21010;SDS011;10663;42.714;23.274;2022-11-25T07:15:28;4.50;;;4.00;;
21010;SDS011;10663;42.714;23.274;2022-11-25T07:16:59;4.97;;;3.60;;
21010;SDS011;10663;42.714;23.274;2022-11-25T07:18:35;4.37;;;3.97;;
21010;SDS011;10663;42.714;23.274;2022-11-25T07:20:07;4.57;;;4.17;;
21010;SDS011;10663;42.714;23.274;2022-11-25T07:21:38;4.60;;;4.18;;
21010;SDS011;10663;42.714;23.274;2022-11-25T07:23:09;4.22;;;3.83;;
21010;SDS011;10663;42.714;23.274;2022-11-25T07:24:40;4.10;;;3.67;;
21010;SDS011;10663;42.714;23.274;2022-11-25T07:26:15;4.70;;;4.22;;
21010;SDS011;10663;42.714;23.274;2022-11-25T07:27:51;4.75;;;4.25;;
21010;SDS011;10663;42.714;23.274;2022-11-25T07:29:21;6.07;;;3.95;;
21010;SDS011;10663;42.714;23.274;2022-11-25T07:30:54;4.67;;;4.10;;
21010;SDS011;10663;42.714;23.274;2022-11-25T07:32:25;5.20;;;4.18;;
21010;SDS011;10663;42.714;23.274;2022-11-25T07:33:58;4.55;;;4.15;;
21010;SDS011;10663;42.714;23.274;2022-11-25T07:35:33;5.43;;;4.93;;
21010;SDS011;10663;42.714;23.274;2022-11-25T07:37:04;7.28;;;4.25;;
21010;SDS011;10663;42.714;23.274;2022-11-25T07:38:36;4.78;;;4.38;;
21010;SDS011;10663;42.714;23.274;2022-11-25T07:40:07;5.55;;;4.45;;
21010;SDS011;10663;42.714;23.274;2022-11-25T07:41:38;4.90;;;4.40;;
21010;SDS011;10663;42.714;23.274;2022-11-25T07:43:11;5.43;;;4.63;;
21010;SDS011;10663;42.714;23.274;2022-11-25T07:44:42;6.15;;;4.78;;
21010;SDS011;10663;42.714;23.274;2022-11-25T07:46:36;4.40;;;4.00;;
21010;SDS011;10663;42.714;23.274;2022-11-25T07:48:09;5.60;;;4.53;;
21010;SDS011;10663;42.714;23.274;2022-11-25T07:49:40;5.70;;;4.75;;
21010;SDS011;10663;42.714;23.274;2022-11-25T07:51:15;6.72;;;4.43;;
21010;SDS011;10663;42.714;23.274;2022-11-25T07:52:54;5.28;;;4.05;;
21010;SDS011;10663;42.714;23.274;2022-11-25T07:54:26;4.40;;;4.00;;
21010;SDS011;10663;42.714;23.274;2022-11-25T07:55:59;4.95;;;4.07;;
21010;SDS011;10663;42.714;23.274;2022-11-25T07:57:31;5.53;;;4.25;;
21010;SDS011;10663;42.714;23.274;2022-11-25T07:59:02;6.68;;;4.38;;
21010;SDS011;10663;42.714;23.274;2022-11-25T08:00:34;5.30;;;4.80;;
21010;SDS011;10663;42.714;23.274;2022-11-25T08:02:05;4.85;;;4.13;;
21010;SDS011;10663;42.714;23.274;2022-11-25T08:03:36;4.93;;;4.32;;
21010;SDS011;10663;42.714;23.274;2022-11-25T08:05:08;5.45;;;4.55;;
21010;SDS011;10663;42.714;23.274;2022-11-25T08:06:42;5.43;;;4.77;;
21010;SDS011;10663;42.714;23.274;2022-11-25T08:08:14;5.22;;;4.72;;
21010;SDS011;10663;42.714;23.274;2022-11-25T08:09:45;4.93;;;4.20;;
21010;SDS011;10663;42.714;23.274;2022-11-25T08:11:17;6.27;;;4.40;;
21010;SDS011;10663;42.714;23.274;2022-11-25T08:12:51;5.20;;;4.70;;
21010;SDS011;10663;42.714;23.274;2022-11-25T08:14:21;6.73;;;4.90;;
21010;SDS011;10663;42.714;23.274;2022-11-25T08:15:52;6.23;;;4.73;;
21010;SDS011;10663;42.714;23.274;2022-11-25T08:17:23;4.88;;;4.30;;
21010;SDS011;10663;42.714;23.274;2022-11-25T08:18:54;5.75;;;4.70;;
21010;SDS011;10663;42.714;23.274;2022-11-25T08:20:25;8.23;;;4.60;;
21010;SDS011;10663;42.714;23.274;2022-11-25T08:21:56;4.45;;;4.05;;
21010;SDS011;10663;42.714;23.274;2022-11-25T08:23:27;4.40;;;4.00;;
21010;SDS011;10663;42.714;23.274;2022-11-25T08:24:58;5.63;;;4.50;;
21010;SDS011;10663;42.714;23.274;2022-11-25T08:26:29;4.93;;;4.43;;
21010;SDS011;10663;42.714;23.274;2022-11-25T08:28:08;5.78;;;4.30;;
21010;SDS011;10663;42.714;23.274;2022-11-25T08:29:39;5.25;;;4.55;;
21010;SDS011;10663;42.714;23.274;2022-11-25T08:31:11;7.82;;;4.78;;
21010;SDS011;10663;42.714;23.274;2022-11-25T08:32:46;4.97;;;4.47;;
21010;SDS011;10663;42.714;23.274;2022-11-25T08:34:19;5.32;;;4.60;;
21010;SDS011;10663;42.714;23.274;2022-11-25T08:35:53;5.80;;;4.55;;
21010;SDS011;10663;42.714;23.274;2022-11-25T08:37:25;5.30;;;4.15;;
21010;SDS011;10663;42.714;23.274;2022-11-25T08:38:57;5.30;;;4.13;;
21010;SDS011;10663;42.714;23.274;2022-11-25T08:40:30;6.20;;;4.33;;
21010;SDS011;10663;42.714;23.274;2022-11-25T08:42:03;4.95;;;4.38;;
21010;SDS011;10663;42.714;23.274;2022-11-25T08:43:34;5.25;;;4.53;;
21010;SDS011;10663;42.714;23.274;2022-11-25T08:45:05;6.75;;;4.47;;
21010;SDS011;10663;42.714;23.274;2022-11-25T08:46:38;6.60;;;4.50;;
21010;SDS011;10663;42.714;23.274;2022-11-25T08:48:09;6.20;;;4.15;;
21010;SDS011;10663;42.714;23.274;2022-11-25T08:49:40;4.95;;;4.40;;
21010;SDS011;10663;42.714;23.274;2022-11-25T08:51:13;5.22;;;4.50;;
21010;SDS011;10663;42.714;23.274;2022-11-25T08:52:45;6.05;;;4.50;;
21010;SDS011;10663;42.714;23.274;2022-11-25T08:54:16;6.70;;;4.40;;
21010;SDS011;10663;42.714;23.274;2022-11-25T08:55:47;5.38;;;4.60;;
21010;SDS011;10663;42.714;23.274;2022-11-25T08:57:18;7.00;;;4.80;;
21010;SDS011;10663;42.714;23.274;2022-11-25T08:58:49;5.28;;;4.72;;
21010;SDS011;10663;42.714;23.274;2022-11-25T09:00:20;6.47;;;5.00;;
21010;SDS011;10663;42.714;23.274;2022-11-25T09:01:52;5.18;;;4.68;;
21010;SDS011;10663;42.714;23.274;2022-11-25T09:03:23;5.90;;;4.30;;
21010;SDS011;10663;42.714;23.274;2022-11-25T09:04:53;6.30;;;4.55;;
21010;SDS011;10663;42.714;23.274;2022-11-25T09:06:25;6.50;;;4.68;;
21010;SDS011;10663;42.714;23.274;2022-11-25T09:07:57;5.38;;;4.88;;
21010;SDS011;10663;42.714;23.274;2022-11-25T09:09:27;6.83;;;4.97;;
21010;SDS011;10663;42.714;23.274;2022-11-25T09:10:59;7.35;;;5.43;;
21010;SDS011;10663;42.714;23.274;2022-11-25T09:12:30;5.75;;;4.38;;
21010;SDS011;10663;42.714;23.274;2022-11-25T09:14:01;5.45;;;4.47;;
21010;SDS011;10663;42.714;23.274;2022-11-25T09:15:32;5.85;;;4.78;;
21010;SDS011;10663;42.714;23.274;2022-11-25T09:17:06;5.47;;;4.40;;
21010;SDS011;10663;42.714;23.274;2022-11-25T09:18:38;5.10;;;4.57;;
21010;SDS011;10663;42.714;23.274;2022-11-25T09:20:09;6.35;;;4.60;;
21010;SDS011;10663;42.714;23.274;2022-11-25T09:21:43;6.20;;;4.90;;